createdAt,value
2019-03-04T00:00:07.563Z,19.31
2019-03-04T00:02:34.191Z,19.30
2019-03-04T00:05:00.869Z,19.36
2019-03-04T00:07:27.508Z,19.29
2019-03-04T00:09:54.161Z,19.30
2019-03-04T00:12:20.813Z,19.29
2019-03-04T00:14:47.458Z,19.36
2019-03-04T00:17:14.158Z,19.39
2019-03-04T00:19:40.794Z,19.37
2019-03-04T00:22:07.423Z,19.38
2019-03-04T00:24:34.118Z,19.41
2019-03-04T00:27:00.798Z,19.31
2019-03-04T00:29:27.480Z,19.41
2019-03-04T00:31:54.162Z,19.40
2019-03-04T00:34:20.827Z,19.36
2019-03-04T00:36:47.500Z,19.29
2019-03-04T00:39:14.140Z,19.31
2019-03-04T00:41:40.804Z,19.34
2019-03-04T00:44:07.451Z,19.39
2019-03-04T00:46:34.104Z,19.42
2019-03-04T00:49:00.783Z,19.32
2019-03-04T00:51:27.424Z,19.35
2019-03-04T00:53:54.106Z,19.38
2019-03-04T00:56:20.744Z,19.43
2019-03-04T00:58:47.393Z,19.39
2019-03-04T01:01:14.075Z,19.44
2019-03-04T01:03:40.713Z,19.45
2019-03-04T01:06:07.357Z,19.41
2019-03-04T01:08:34.014Z,19.43
2019-03-04T01:11:01.886Z,19.41
2019-03-04T01:13:27.340Z,19.40
2019-03-04T01:15:54.008Z,19.44
2019-03-04T01:18:20.644Z,19.42
2019-03-04T01:20:47.285Z,19.38
2019-03-04T01:23:13.960Z,19.33
2019-03-04T01:25:40.642Z,19.44
2019-03-04T01:28:07.291Z,19.45
2019-03-04T01:30:33.929Z,19.38
2019-03-04T01:33:00.760Z,19.44
2019-03-04T01:35:27.428Z,19.37
2019-03-04T01:37:54.046Z,19.37
2019-03-04T01:40:20.751Z,19.37
2019-03-04T01:42:47.409Z,19.37
2019-03-04T01:45:14.089Z,19.35
2019-03-04T01:47:40.849Z,19.35
2019-03-04T01:50:07.435Z,19.42
2019-03-04T01:52:34.083Z,19.41
2019-03-04T01:55:00.732Z,19.45
2019-03-04T01:57:27.377Z,19.35
2019-03-04T01:59:54.079Z,19.40
2019-03-04T02:02:20.838Z,19.42
2019-03-04T02:04:47.543Z,19.47
2019-03-04T02:07:14.181Z,19.49
2019-03-04T02:09:40.873Z,19.44
2019-03-04T02:12:07.523Z,19.52
2019-03-04T02:14:34.168Z,19.52
2019-03-04T02:17:00.813Z,19.52
2019-03-04T02:19:27.538Z,19.48
2019-03-04T02:21:54.178Z,19.44
2019-03-04T02:24:20.876Z,19.39
2019-03-04T02:26:47.568Z,19.45
2019-03-04T02:29:14.210Z,19.48
2019-03-04T02:31:40.849Z,19.37
2019-03-04T02:34:07.511Z,19.46
2019-03-04T02:36:34.154Z,19.44
2019-03-04T02:39:00.806Z,19.49
2019-03-04T02:41:27.449Z,19.48
2019-03-04T02:43:54.103Z,19.50
2019-03-04T02:46:20.755Z,19.53
2019-03-04T02:48:47.409Z,19.50
2019-03-04T02:51:14.049Z,19.52
2019-03-04T02:53:40.697Z,19.48
2019-03-04T02:56:07.379Z,19.52
2019-03-04T02:58:34.025Z,19.53
2019-03-04T03:01:00.673Z,19.57
2019-03-04T03:03:27.318Z,19.49
2019-03-04T03:05:54.008Z,19.49
2019-03-04T03:08:20.645Z,19.47
2019-03-04T03:10:47.280Z,19.42
2019-03-04T03:13:13.932Z,19.44
2019-03-04T03:15:40.575Z,19.54
2019-03-04T03:18:07.225Z,19.58
2019-03-04T03:20:33.883Z,19.67
2019-03-04T03:23:00.551Z,19.59
2019-03-04T03:25:27.168Z,19.65
2019-03-04T03:27:53.821Z,19.60
2019-03-04T03:30:20.531Z,19.66
2019-03-04T03:32:47.175Z,19.62
2019-03-04T03:35:13.813Z,19.66
2019-03-04T03:37:40.463Z,19.66
2019-03-04T03:40:07.109Z,19.66
2019-03-04T03:42:33.749Z,19.68
2019-03-04T03:45:00.432Z,19.64
2019-03-04T03:47:27.068Z,19.86
2019-03-04T03:49:53.709Z,19.99
2019-03-04T03:52:20.438Z,20.04
2019-03-04T03:54:47.112Z,19.91
2019-03-04T03:57:13.799Z,19.95
2019-03-04T03:59:40.440Z,19.89
2019-03-04T04:02:07.087Z,19.82
2019-03-04T04:04:33.816Z,19.83
2019-03-04T04:07:00.450Z,19.78
2019-03-04T04:09:27.121Z,19.76
2019-03-04T04:11:53.746Z,19.78
2019-03-04T04:14:20.386Z,19.77
2019-03-04T04:16:47.072Z,19.79
2019-03-04T04:19:13.710Z,19.82
2019-03-04T04:21:40.354Z,19.81
2019-03-04T04:24:06.993Z,19.84
2019-03-04T04:26:33.675Z,19.82
2019-03-04T04:29:00.325Z,19.83
2019-03-04T04:31:26.967Z,19.91
2019-03-04T04:33:53.616Z,19.78
2019-03-04T04:36:20.263Z,19.87
2019-03-04T04:38:46.942Z,19.80
2019-03-04T04:41:13.581Z,19.81
2019-03-04T04:43:40.261Z,19.84
2019-03-04T04:46:06.909Z,19.86
2019-03-04T04:48:33.562Z,19.78
2019-03-04T04:51:00.200Z,19.79
2019-03-04T04:53:26.835Z,19.73
2019-03-04T04:55:53.485Z,19.83
2019-03-04T04:58:20.171Z,19.86
2019-03-04T05:00:46.810Z,19.77
2019-03-04T05:03:13.483Z,19.83
2019-03-04T05:05:40.095Z,19.71
2019-03-04T05:08:06.737Z,19.75
2019-03-04T05:10:33.379Z,19.78
2019-03-04T05:13:00.023Z,19.77
2019-03-04T05:15:26.707Z,19.70
2019-03-04T05:17:53.399Z,19.70
2019-03-04T05:20:20.343Z,19.61
2019-03-04T05:22:46.984Z,19.52
2019-03-04T05:25:13.666Z,19.43
2019-03-04T05:27:40.302Z,19.32
2019-03-04T05:30:06.996Z,19.33
2019-03-04T05:32:33.633Z,19.22
2019-03-04T05:35:00.308Z,19.29
2019-03-04T05:37:26.923Z,19.37
2019-03-04T05:39:53.612Z,19.24
2019-03-04T05:42:20.293Z,19.19
2019-03-04T05:44:46.927Z,18.53
2019-03-04T05:47:13.590Z,17.88
2019-03-04T05:49:40.248Z,17.67
2019-03-04T05:52:06.924Z,17.62
2019-03-04T05:54:33.590Z,18.11
2019-03-04T05:57:00.223Z,18.57
2019-03-04T05:59:27.001Z,18.76
2019-03-04T06:01:53.653Z,18.76
2019-03-04T06:04:20.350Z,18.76
2019-03-04T06:06:46.988Z,18.75
2019-03-04T06:09:16.239Z,18.76
2019-03-04T06:11:42.896Z,18.70
2019-03-04T06:14:09.541Z,18.70
2019-03-04T06:16:36.226Z,18.66
2019-03-04T06:19:02.876Z,18.65
2019-03-04T06:21:29.526Z,18.61
2019-03-04T06:23:56.208Z,18.61
2019-03-04T06:26:22.846Z,18.56
2019-03-04T06:28:49.485Z,18.55
2019-03-04T06:31:16.130Z,18.55
2019-03-04T06:33:42.767Z,18.49
2019-03-04T06:36:09.449Z,18.51
2019-03-04T06:38:36.142Z,18.48
2019-03-04T06:41:02.788Z,18.48
2019-03-04T06:43:29.428Z,18.48
2019-03-04T06:45:56.103Z,18.48
2019-03-04T06:48:22.787Z,18.42
2019-03-04T06:50:49.431Z,18.39
2019-03-04T06:53:16.066Z,18.42
2019-03-04T06:55:42.760Z,18.36
2019-03-04T06:58:09.474Z,18.37
2019-03-04T07:00:36.121Z,18.35
2019-03-04T07:03:02.772Z,18.36
2019-03-04T07:05:29.403Z,18.31
2019-03-04T07:07:56.116Z,18.39
2019-03-04T07:10:22.742Z,18.33
2019-03-04T07:12:49.426Z,18.39
2019-03-04T07:15:16.070Z,18.36
2019-03-04T07:17:42.717Z,18.33
2019-03-04T07:20:09.381Z,18.35
2019-03-04T07:22:36.069Z,18.29
2019-03-04T07:25:02.756Z,18.35
2019-03-04T07:27:29.430Z,18.32
2019-03-04T07:29:56.112Z,18.33
2019-03-04T07:32:22.783Z,18.30
2019-03-04T07:34:49.465Z,18.40
2019-03-04T07:37:16.124Z,18.32
2019-03-04T07:39:42.765Z,18.32
2019-03-04T07:42:09.415Z,18.33
2019-03-04T07:44:36.105Z,18.29
2019-03-04T07:47:02.787Z,18.31
2019-03-04T07:49:29.474Z,18.32
2019-03-04T07:51:56.117Z,18.31
2019-03-04T07:54:22.766Z,18.30
2019-03-04T07:56:49.423Z,18.36
2019-03-04T07:59:16.061Z,18.34
2019-03-04T08:01:42.704Z,18.34
2019-03-04T08:04:09.380Z,18.37
2019-03-04T08:06:36.045Z,18.36
2019-03-04T08:09:02.693Z,18.41
2019-03-04T08:11:29.329Z,18.39
2019-03-04T08:13:55.982Z,18.39
2019-03-04T08:16:22.671Z,18.39
2019-03-04T08:18:49.338Z,18.41
2019-03-04T08:21:15.990Z,18.45
2019-03-04T08:23:42.648Z,18.47
2019-03-04T08:26:09.335Z,18.47
2019-03-04T08:28:35.981Z,18.46
2019-03-04T08:31:02.615Z,18.47
2019-03-04T08:33:29.257Z,18.46
2019-03-04T08:35:55.894Z,18.51
2019-03-04T08:38:22.552Z,18.50
2019-03-04T08:40:49.187Z,18.50
2019-03-04T08:43:15.875Z,18.53
2019-03-04T08:45:42.483Z,18.49
2019-03-04T08:48:09.120Z,18.52
2019-03-04T08:50:35.821Z,18.50
2019-03-04T08:53:02.503Z,18.58
2019-03-04T08:55:30.210Z,18.56
2019-03-04T08:57:55.784Z,18.55
2019-03-04T09:00:22.442Z,18.56
2019-03-04T09:02:49.176Z,18.62
2019-03-04T09:05:15.819Z,18.57
2019-03-04T09:07:42.462Z,18.56
2019-03-04T09:10:09.126Z,18.59
2019-03-04T09:12:36.053Z,18.59
2019-03-04T09:15:02.440Z,18.60
2019-03-04T09:17:29.081Z,18.61
2019-03-04T09:19:55.730Z,18.62
2019-03-04T09:22:22.395Z,18.60
2019-03-04T09:24:49.081Z,18.63
2019-03-04T09:27:15.717Z,18.61
2019-03-04T09:29:42.378Z,18.59
2019-03-04T09:32:09.040Z,18.60
2019-03-04T09:34:35.684Z,18.60
2019-03-04T09:37:02.343Z,18.58
2019-03-04T09:39:29.025Z,18.62
2019-03-04T09:41:55.719Z,18.61
2019-03-04T09:44:22.359Z,18.61
2019-03-04T09:46:49.004Z,18.59
2019-03-04T09:49:15.653Z,18.58
2019-03-04T09:51:42.369Z,18.61
2019-03-04T09:54:09.018Z,18.59
2019-03-04T09:56:36.963Z,18.62
2019-03-04T09:59:02.318Z,18.60
2019-03-04T10:01:28.999Z,18.56
2019-03-04T10:03:55.695Z,18.59
2019-03-04T10:06:22.386Z,18.59
2019-03-04T10:08:49.035Z,18.54
2019-03-04T10:11:15.684Z,18.57
2019-03-04T10:13:42.328Z,18.59
2019-03-04T10:16:18.305Z,18.54
2019-03-04T10:18:35.622Z,18.53
2019-03-04T10:21:02.281Z,18.53
2019-03-04T10:23:28.925Z,18.54
2019-03-04T10:25:55.612Z,18.50
2019-03-04T10:28:22.257Z,18.53
2019-03-04T10:30:48.900Z,18.48
2019-03-04T10:33:15.556Z,18.45
2019-03-04T10:35:42.239Z,18.44
2019-03-04T10:38:08.976Z,18.44
2019-03-04T10:40:35.637Z,18.41
2019-03-04T10:43:02.290Z,18.38
2019-03-04T10:45:28.941Z,18.38
2019-03-04T10:47:55.638Z,18.37
2019-03-04T10:50:22.286Z,18.35
2019-03-04T10:52:48.924Z,18.33
2019-03-04T10:55:15.579Z,18.30
2019-03-04T10:57:43.570Z,18.31
2019-03-04T11:00:08.913Z,18.31
2019-03-04T11:02:35.551Z,18.27
2019-03-04T11:05:02.246Z,18.24
2019-03-04T11:07:28.900Z,18.26
2019-03-04T11:09:55.611Z,18.25
2019-03-04T11:12:22.323Z,18.21
2019-03-04T11:14:48.969Z,18.19
2019-03-04T11:17:15.623Z,18.16
2019-03-04T11:19:42.350Z,18.18
2019-03-04T11:22:09.001Z,18.14
2019-03-04T11:24:35.640Z,18.09
2019-03-04T11:27:02.289Z,18.11
2019-03-04T11:29:28.966Z,18.02
2019-03-04T11:31:55.575Z,18.01
2019-03-04T11:34:22.253Z,17.96
2019-03-04T11:36:48.909Z,17.98
2019-03-04T11:39:15.554Z,17.95
2019-03-04T11:41:42.199Z,17.91
2019-03-04T11:44:08.840Z,17.82
2019-03-04T11:46:35.517Z,17.78
2019-03-04T11:49:02.162Z,17.58
2019-03-04T11:51:28.804Z,17.90
2019-03-04T11:53:55.473Z,17.92
2019-03-04T11:56:22.116Z,17.82
2019-03-04T11:58:48.857Z,17.84
2019-03-04T12:01:15.504Z,17.67
2019-03-04T12:03:42.141Z,17.67
2019-03-04T12:06:08.792Z,17.61
2019-03-04T12:08:35.491Z,17.55
2019-03-04T12:11:02.137Z,17.56
2019-03-04T12:13:28.824Z,17.46
2019-03-04T12:15:55.519Z,17.42
2019-03-04T12:18:22.165Z,17.39
2019-03-04T12:20:48.806Z,17.36
2019-03-04T12:23:15.493Z,17.31
2019-03-04T12:25:42.138Z,17.33
2019-03-04T12:28:08.792Z,17.25
2019-03-04T12:30:35.445Z,17.28
2019-03-04T12:33:02.085Z,17.25
2019-03-04T12:35:28.730Z,17.23
2019-03-04T12:37:55.412Z,17.18
2019-03-04T12:40:22.067Z,17.12
2019-03-04T12:42:48.731Z,17.08
2019-03-04T12:45:15.386Z,17.11
2019-03-04T12:47:42.112Z,17.16
2019-03-04T12:50:08.760Z,17.07
2019-03-04T12:52:35.403Z,16.96
2019-03-04T12:55:02.133Z,16.95
2019-03-04T12:57:28.768Z,16.90
2019-03-04T12:59:55.413Z,16.96
2019-03-04T13:02:22.259Z,16.94
2019-03-04T13:04:48.910Z,16.85
2019-03-04T13:07:15.641Z,16.79
2019-03-04T13:09:42.333Z,16.94
2019-03-04T13:12:08.977Z,16.91
2019-03-04T13:14:35.624Z,16.83
2019-03-04T13:17:02.308Z,16.78
2019-03-04T13:19:28.947Z,16.75
2019-03-04T13:21:55.633Z,16.80
2019-03-04T13:24:22.278Z,16.84
2019-03-04T13:26:48.915Z,16.77
2019-03-04T13:29:15.614Z,16.79
2019-03-04T13:31:42.272Z,16.78
2019-03-04T13:34:08.926Z,16.79
2019-03-04T13:36:35.564Z,16.71
2019-03-04T13:39:02.209Z,16.70
2019-03-04T13:41:28.857Z,16.69
2019-03-04T13:43:55.540Z,16.73
2019-03-04T13:46:22.138Z,16.68
2019-03-04T13:48:48.825Z,16.76
2019-03-04T13:51:15.462Z,16.75
2019-03-04T13:53:42.106Z,16.66
2019-03-04T13:56:08.761Z,16.66
2019-03-04T13:58:35.485Z,16.63
2019-03-04T14:01:02.103Z,16.62
2019-03-04T14:03:28.796Z,16.66
2019-03-04T14:05:55.493Z,16.62
2019-03-04T14:08:22.129Z,16.64
2019-03-04T14:10:48.820Z,16.63
2019-03-04T14:13:15.462Z,16.62
2019-03-04T14:15:42.146Z,16.64
2019-03-04T14:18:08.800Z,16.65
2019-03-04T14:20:35.441Z,16.54
2019-03-04T14:23:02.093Z,16.57
2019-03-04T14:25:28.739Z,16.58
2019-03-04T14:27:55.433Z,16.55
2019-03-04T14:30:22.123Z,16.50
2019-03-04T14:32:48.762Z,16.52
2019-03-04T14:35:15.411Z,16.51
2019-03-04T14:37:42.107Z,16.56
2019-03-04T14:40:08.746Z,16.53
2019-03-04T14:42:35.384Z,16.57
2019-03-04T14:45:02.042Z,16.52
2019-03-04T14:47:28.701Z,16.50
2019-03-04T14:49:55.338Z,16.53
2019-03-04T14:52:22.017Z,16.47
2019-03-04T14:54:48.664Z,16.57
2019-03-04T14:57:15.313Z,16.50
2019-03-04T14:59:41.961Z,16.54
2019-03-04T15:02:08.608Z,16.53
2019-03-04T15:04:35.271Z,16.55
2019-03-04T15:07:01.974Z,16.57
2019-03-04T15:09:28.735Z,16.56
2019-03-04T15:11:55.374Z,16.52
2019-03-04T15:14:22.058Z,16.58
2019-03-04T15:16:48.695Z,16.55
2019-03-04T15:19:15.376Z,16.55
2019-03-04T15:21:42.015Z,16.54
2019-03-04T15:24:08.687Z,16.51
2019-03-04T15:26:41.962Z,16.56
2019-03-04T15:29:01.992Z,16.56
2019-03-04T15:31:28.685Z,16.51
2019-03-04T15:33:55.322Z,16.51
2019-03-04T15:36:21.969Z,16.51
2019-03-04T15:38:48.652Z,16.55
2019-03-04T15:41:15.301Z,16.57
2019-03-04T15:43:41.940Z,16.50
2019-03-04T15:46:08.617Z,16.52
2019-03-04T15:48:35.269Z,16.55
2019-03-04T15:51:01.944Z,16.54
2019-03-04T15:53:28.663Z,16.48
2019-03-04T15:55:55.313Z,16.50
2019-03-04T15:58:21.956Z,16.52
2019-03-04T16:00:48.597Z,16.51
2019-03-04T16:03:15.232Z,16.50
2019-03-04T16:05:41.886Z,16.52
2019-03-04T16:08:08.533Z,16.50
2019-03-04T16:10:35.189Z,16.48
2019-03-04T16:13:01.838Z,16.45
2019-03-04T16:15:28.483Z,16.50
2019-03-04T16:17:55.117Z,16.49
2019-03-04T16:20:21.784Z,16.46
2019-03-04T16:22:48.433Z,16.51
2019-03-04T16:25:15.082Z,16.51
2019-03-04T16:27:41.731Z,16.54
2019-03-04T16:30:08.386Z,16.55
2019-03-04T16:32:35.026Z,16.54
2019-03-04T16:35:01.675Z,16.57
2019-03-04T16:37:28.383Z,16.59
2019-03-04T16:39:54.975Z,16.61
2019-03-04T16:42:21.623Z,16.64
2019-03-04T16:44:48.260Z,16.67
2019-03-04T16:47:14.912Z,16.66
2019-03-04T16:49:41.561Z,16.65
2019-03-04T16:52:08.196Z,16.70
2019-03-04T16:54:34.881Z,16.70
2019-03-04T16:57:03.434Z,16.72
2019-03-04T16:59:28.205Z,16.69
2019-03-04T17:01:54.840Z,16.73
2019-03-04T17:04:21.480Z,16.73
2019-03-04T17:06:48.122Z,16.75
2019-03-04T17:09:14.781Z,16.76
2019-03-04T17:11:44.754Z,16.76
2019-03-04T17:14:11.397Z,16.81
2019-03-04T17:16:38.042Z,16.82
2019-03-04T17:19:04.689Z,16.79
2019-03-04T17:21:31.325Z,16.81
2019-03-04T17:23:57.990Z,16.82
2019-03-04T17:26:24.636Z,16.88
2019-03-04T17:28:51.272Z,16.87
2019-03-04T17:31:17.926Z,16.94
2019-03-04T17:33:45.655Z,16.94
2019-03-04T17:36:11.219Z,17.01
2019-03-04T17:38:37.918Z,16.99
2019-03-04T17:41:04.588Z,16.94
2019-03-04T17:43:31.239Z,17.02
2019-03-04T17:45:57.883Z,16.99
2019-03-04T17:48:25.210Z,16.98
2019-03-04T17:50:51.868Z,16.99
2019-03-04T17:53:18.670Z,16.99
2019-03-04T17:55:45.323Z,16.97
2019-03-04T17:58:11.965Z,17.06
2019-03-04T18:00:38.619Z,16.99
2019-03-04T18:03:05.284Z,17.02
2019-03-04T18:05:32.058Z,17.04
2019-03-04T18:07:58.738Z,17.08
2019-03-04T18:10:25.354Z,17.10
2019-03-04T18:12:53.212Z,17.07
2019-03-04T18:15:18.632Z,17.08
2019-03-04T18:17:45.281Z,17.06
2019-03-04T18:20:11.934Z,17.08
2019-03-04T18:22:38.572Z,17.08
2019-03-04T18:25:05.227Z,17.12
2019-03-04T18:27:31.871Z,17.09
2019-03-04T18:29:58.545Z,17.08
2019-03-04T18:32:25.194Z,17.09
2019-03-04T18:34:51.840Z,17.06
2019-03-04T18:37:18.484Z,17.06
2019-03-04T18:39:45.121Z,17.12
2019-03-04T18:42:11.890Z,17.16
2019-03-04T18:44:38.537Z,17.17
2019-03-04T18:47:05.179Z,17.15
2019-03-04T18:49:31.848Z,17.16
2019-03-04T18:51:58.499Z,17.12
2019-03-04T18:54:25.149Z,17.17
2019-03-04T18:56:51.790Z,17.32
2019-03-04T18:59:18.443Z,17.26
2019-03-04T19:01:45.082Z,17.25
2019-03-04T19:04:11.764Z,17.35
2019-03-04T19:06:38.415Z,17.34
2019-03-04T19:09:05.057Z,17.23
2019-03-04T19:11:31.704Z,17.31
2019-03-04T19:13:58.345Z,17.37
2019-03-04T19:16:24.995Z,17.39
2019-03-04T19:18:51.645Z,17.32
2019-03-04T19:21:18.330Z,17.29
2019-03-04T19:23:45.080Z,17.31
2019-03-04T19:26:11.713Z,17.29
2019-03-04T19:28:38.369Z,17.26
2019-03-04T19:31:05.051Z,17.23
2019-03-04T19:33:31.702Z,17.29
2019-03-04T19:35:58.363Z,17.31
2019-03-04T19:38:25.010Z,17.29
2019-03-04T19:40:51.662Z,17.31
2019-03-04T19:43:18.313Z,17.32
2019-03-04T19:45:45.079Z,17.36
2019-03-04T19:48:11.718Z,17.29
2019-03-04T19:50:38.364Z,17.30
2019-03-04T19:53:05.026Z,17.38
2019-03-04T19:55:31.680Z,17.60
2019-03-04T19:57:58.316Z,17.67
2019-03-04T20:00:25.180Z,17.64
2019-03-04T20:02:51.600Z,17.66
2019-03-04T20:05:18.246Z,17.53
2019-03-04T20:07:44.888Z,17.50
2019-03-04T20:10:11.545Z,17.45
2019-03-04T20:12:38.193Z,17.55
2019-03-04T20:15:04.846Z,17.59
2019-03-04T20:17:31.525Z,17.59
2019-03-04T20:19:58.165Z,17.47
2019-03-04T20:22:24.813Z,17.46
2019-03-04T20:24:51.450Z,17.51
2019-03-04T20:27:18.094Z,17.45
2019-03-04T20:29:44.727Z,17.39
2019-03-04T20:32:11.382Z,17.45
2019-03-04T20:34:38.026Z,17.43
2019-03-04T20:37:04.679Z,17.46
2019-03-04T20:39:31.321Z,17.40
2019-03-04T20:41:57.963Z,17.47
2019-03-04T20:44:24.626Z,17.48
2019-03-04T20:46:51.263Z,17.54
2019-03-04T20:49:17.919Z,17.40
2019-03-04T20:51:44.557Z,17.39
2019-03-04T20:54:11.197Z,17.44
2019-03-04T20:56:37.844Z,17.50
2019-03-04T20:59:04.484Z,17.42
2019-03-04T21:01:31.133Z,17.44
2019-03-04T21:03:57.789Z,17.43
2019-03-04T21:06:24.423Z,17.35
2019-03-04T21:08:51.064Z,17.47
2019-03-04T21:11:17.741Z,17.43
2019-03-04T21:13:44.372Z,17.34
2019-03-04T21:16:11.023Z,17.44
2019-03-04T21:18:37.659Z,17.45
2019-03-04T21:21:04.309Z,17.48
2019-03-04T21:23:30.947Z,17.33
2019-03-04T21:25:57.597Z,17.34
2019-03-04T21:28:24.280Z,17.41
2019-03-04T21:30:50.931Z,17.49
2019-03-04T21:33:17.590Z,17.48
2019-03-04T21:35:45.042Z,17.54
2019-03-04T21:38:10.893Z,17.41
2019-03-04T21:40:37.606Z,17.50
2019-03-04T21:43:04.245Z,17.56
2019-03-04T21:45:30.883Z,17.60
2019-03-04T21:47:57.527Z,17.59
2019-03-04T21:50:24.185Z,17.63
2019-03-04T21:52:50.849Z,17.53
2019-03-04T21:55:17.509Z,17.59
2019-03-04T21:57:44.243Z,17.59
2019-03-04T22:00:10.884Z,17.66
2019-03-04T22:02:37.566Z,17.56
2019-03-04T22:05:04.239Z,17.55
2019-03-04T22:07:30.953Z,17.50
2019-03-04T22:09:57.633Z,17.47
2019-03-04T22:12:24.522Z,17.61
2019-03-04T22:14:51.173Z,17.57
2019-03-04T22:17:18.592Z,17.64
2019-03-04T22:19:45.261Z,17.64
2019-03-04T22:22:11.932Z,17.59
2019-03-04T22:24:38.625Z,17.50
2019-03-04T22:27:05.297Z,17.63
2019-03-04T22:29:32.035Z,17.66
2019-03-04T22:31:58.733Z,17.63
2019-03-04T22:34:25.420Z,17.55
2019-03-04T22:36:52.101Z,17.65
2019-03-04T22:39:18.787Z,17.65
2019-03-04T22:41:45.474Z,17.69
2019-03-04T22:44:12.144Z,17.65
2019-03-04T22:46:38.840Z,17.62
2019-03-04T22:49:05.557Z,17.67
2019-03-04T22:51:32.215Z,17.66
2019-03-04T22:53:58.889Z,17.71
2019-03-04T22:56:25.638Z,17.71
2019-03-04T22:58:52.301Z,17.68
2019-03-04T23:01:18.981Z,17.70
2019-03-04T23:03:45.659Z,17.74
2019-03-04T23:06:12.478Z,17.71
2019-03-04T23:08:39.146Z,17.67
2019-03-04T23:11:05.864Z,17.72
2019-03-04T23:13:32.550Z,17.66
2019-03-04T23:15:59.230Z,17.73
2019-03-04T23:18:25.998Z,17.71
2019-03-04T23:20:52.670Z,17.73
2019-03-04T23:23:19.353Z,17.73
2019-03-04T23:25:46.043Z,17.79
2019-03-04T23:28:12.721Z,17.80
2019-03-04T23:30:39.440Z,17.74
2019-03-04T23:33:06.108Z,17.73
2019-03-04T23:35:32.778Z,17.72
2019-03-04T23:37:59.472Z,17.73
2019-03-04T23:40:26.145Z,17.72
2019-03-04T23:42:52.826Z,17.78
2019-03-04T23:45:19.505Z,17.82
2019-03-04T23:47:46.190Z,17.79
2019-03-04T23:50:12.849Z,17.83
2019-03-04T23:52:39.513Z,17.84
2019-03-04T23:55:06.184Z,17.78
2019-03-04T23:57:33.027Z,17.83
2019-03-04T23:59:59.664Z,17.79
